sensor_id;sensor_type;location;lat;lon;timestamp;P1;durP1;ratioP1;P2;durP2;ratioP2
25111;SDS011;13092;51.996;4.458;2023-09-12T00:00:08;62.70;;;56.53;;
25111;SDS011;13092;51.996;4.458;2023-09-12T00:02:39;64.05;;;57.75;;
25111;SDS011;13092;51.996;4.458;2023-09-12T00:05:07;66.43;;;59.95;;
25111;SDS011;13092;51.996;4.458;2023-09-12T00:07:37;66.93;;;60.38;;
25111;SDS011;13092;51.996;4.458;2023-09-12T00:10:06;65.22;;;58.83;;
25111;SDS011;13092;51.996;4.458;2023-09-12T00:12:35;65.93;;;59.20;;
25111;SDS011;13092;51.996;4.458;2023-09-12T00:15:04;70.43;;;63.08;;
25111;SDS011;13092;51.996;4.458;2023-09-12T00:17:34;70.22;;;62.97;;
25111;SDS011;13092;51.996;4.458;2023-09-12T00:20:04;69.45;;;62.35;;
25111;SDS011;13092;51.996;4.458;2023-09-12T00:22:34;65.85;;;59.28;;
25111;SDS011;13092;51.996;4.458;2023-09-12T00:25:02;68.47;;;61.15;;
25111;SDS011;13092;51.996;4.458;2023-09-12T00:27:35;70.20;;;63.00;;
25111;SDS011;13092;51.996;4.458;2023-09-12T00:30:03;70.60;;;63.38;;
25111;SDS011;13092;51.996;4.458;2023-09-12T00:32:32;70.38;;;63.13;;
25111;SDS011;13092;51.996;4.458;2023-09-12T00:35:01;71.10;;;63.80;;
25111;SDS011;13092;51.996;4.458;2023-09-12T00:37:31;68.28;;;61.28;;
25111;SDS011;13092;51.996;4.458;2023-09-12T00:39:59;63.97;;;57.53;;
25111;SDS011;13092;51.996;4.458;2023-09-12T00:42:27;65.55;;;58.85;;
25111;SDS011;13092;51.996;4.458;2023-09-12T00:44:55;63.20;;;56.70;;
25111;SDS011;13092;51.996;4.458;2023-09-12T00:47:23;61.58;;;55.55;;
25111;SDS011;13092;51.996;4.458;2023-09-12T00:49:53;60.78;;;54.50;;
25111;SDS011;13092;51.996;4.458;2023-09-12T00:52:23;63.10;;;56.42;;
25111;SDS011;13092;51.996;4.458;2023-09-12T00:54:54;60.25;;;54.45;;
25111;SDS011;13092;51.996;4.458;2023-09-12T00:57:23;59.78;;;53.78;;
25111;SDS011;13092;51.996;4.458;2023-09-12T00:59:52;61.50;;;55.38;;
25111;SDS011;13092;51.996;4.458;2023-09-12T01:02:22;60.05;;;54.08;;
25111;SDS011;13092;51.996;4.458;2023-09-12T01:04:50;59.78;;;53.67;;
25111;SDS011;13092;51.996;4.458;2023-09-12T01:07:19;60.75;;;54.35;;
25111;SDS011;13092;51.996;4.458;2023-09-12T01:09:47;63.00;;;56.53;;
25111;SDS011;13092;51.996;4.458;2023-09-12T01:12:17;62.22;;;55.83;;
25111;SDS011;13092;51.996;4.458;2023-09-12T01:14:47;57.70;;;52.00;;
25111;SDS011;13092;51.996;4.458;2023-09-12T01:17:15;57.92;;;52.15;;
25111;SDS011;13092;51.996;4.458;2023-09-12T01:19:44;55.80;;;50.47;;
25111;SDS011;13092;51.996;4.458;2023-09-12T01:22:17;55.40;;;50.17;;
25111;SDS011;13092;51.996;4.458;2023-09-12T01:28:11;56.13;;;50.78;;
25111;SDS011;13092;51.996;4.458;2023-09-12T01:30:41;54.78;;;49.55;;
25111;SDS011;13092;51.996;4.458;2023-09-12T01:33:11;54.47;;;49.03;;
25111;SDS011;13092;51.996;4.458;2023-09-12T01:35:40;54.13;;;49.08;;
25111;SDS011;13092;51.996;4.458;2023-09-12T01:38:09;54.72;;;49.53;;
25111;SDS011;13092;51.996;4.458;2023-09-12T01:40:39;56.28;;;50.72;;
25111;SDS011;13092;51.996;4.458;2023-09-12T01:43:12;51.75;;;46.85;;
25111;SDS011;13092;51.996;4.458;2023-09-12T01:45:44;54.22;;;48.92;;
25111;SDS011;13092;51.996;4.458;2023-09-12T01:48:15;53.70;;;48.50;;
25111;SDS011;13092;51.996;4.458;2023-09-12T01:50:48;52.47;;;47.33;;
25111;SDS011;13092;51.996;4.458;2023-09-12T01:53:17;53.97;;;48.92;;
25111;SDS011;13092;51.996;4.458;2023-09-12T01:55:46;53.42;;;48.28;;
25111;SDS011;13092;51.996;4.458;2023-09-12T01:58:17;54.25;;;48.95;;
25111;SDS011;13092;51.996;4.458;2023-09-12T02:00:46;55.20;;;49.90;;
25111;SDS011;13092;51.996;4.458;2023-09-12T02:03:14;54.28;;;48.72;;
25111;SDS011;13092;51.996;4.458;2023-09-12T02:05:42;55.03;;;49.58;;
25111;SDS011;13092;51.996;4.458;2023-09-12T02:08:11;54.45;;;49.22;;
25111;SDS011;13092;51.996;4.458;2023-09-12T02:10:39;55.90;;;50.40;;
25111;SDS011;13092;51.996;4.458;2023-09-12T02:13:07;53.78;;;48.55;;
25111;SDS011;13092;51.996;4.458;2023-09-12T02:15:37;54.38;;;49.13;;
25111;SDS011;13092;51.996;4.458;2023-09-12T02:18:05;54.13;;;48.78;;
25111;SDS011;13092;51.996;4.458;2023-09-12T02:20:37;56.17;;;50.40;;
25111;SDS011;13092;51.996;4.458;2023-09-12T02:23:05;56.42;;;50.95;;
25111;SDS011;13092;51.996;4.458;2023-09-12T02:25:34;55.35;;;49.75;;
25111;SDS011;13092;51.996;4.458;2023-09-12T02:28:02;55.67;;;50.42;;
25111;SDS011;13092;51.996;4.458;2023-09-12T02:30:33;56.08;;;50.17;;
25111;SDS011;13092;51.996;4.458;2023-09-12T02:33:04;55.50;;;49.80;;
25111;SDS011;13092;51.996;4.458;2023-09-12T02:35:32;55.40;;;49.72;;
25111;SDS011;13092;51.996;4.458;2023-09-12T02:38:01;55.63;;;49.85;;
25111;SDS011;13092;51.996;4.458;2023-09-12T02:40:29;57.58;;;51.67;;
25111;SDS011;13092;51.996;4.458;2023-09-12T02:42:58;58.53;;;52.53;;
25111;SDS011;13092;51.996;4.458;2023-09-12T02:45:26;55.33;;;49.80;;
25111;SDS011;13092;51.996;4.458;2023-09-12T02:47:54;57.38;;;51.28;;
25111;SDS011;13092;51.996;4.458;2023-09-12T02:50:24;61.05;;;53.28;;
25111;SDS011;13092;51.996;4.458;2023-09-12T02:52:53;59.30;;;53.10;;
25111;SDS011;13092;51.996;4.458;2023-09-12T02:55:21;56.92;;;51.22;;
25111;SDS011;13092;51.996;4.458;2023-09-12T02:57:49;62.90;;;54.58;;
25111;SDS011;13092;51.996;4.458;2023-09-12T03:00:17;57.47;;;51.42;;
25111;SDS011;13092;51.996;4.458;2023-09-12T03:02:46;57.30;;;51.60;;
25111;SDS011;13092;51.996;4.458;2023-09-12T03:05:15;57.72;;;51.58;;
25111;SDS011;13092;51.996;4.458;2023-09-12T03:07:44;61.10;;;53.35;;
25111;SDS011;13092;51.996;4.458;2023-09-12T03:10:13;58.50;;;52.53;;
25111;SDS011;13092;51.996;4.458;2023-09-12T03:12:41;60.22;;;53.63;;
25111;SDS011;13092;51.996;4.458;2023-09-12T03:15:10;58.22;;;51.90;;
25111;SDS011;13092;51.996;4.458;2023-09-12T03:17:39;56.55;;;50.85;;
25111;SDS011;13092;51.996;4.458;2023-09-12T03:20:07;58.40;;;52.50;;
25111;SDS011;13092;51.996;4.458;2023-09-12T03:22:37;60.58;;;53.92;;
25111;SDS011;13092;51.996;4.458;2023-09-12T03:25:07;59.90;;;52.92;;
25111;SDS011;13092;51.996;4.458;2023-09-12T03:27:35;57.63;;;51.63;;
25111;SDS011;13092;51.996;4.458;2023-09-12T03:30:04;58.85;;;52.72;;
25111;SDS011;13092;51.996;4.458;2023-09-12T03:32:33;69.05;;;55.17;;
25111;SDS011;13092;51.996;4.458;2023-09-12T03:35:02;62.08;;;54.72;;
25111;SDS011;13092;51.996;4.458;2023-09-12T03:37:33;56.90;;;51.13;;
25111;SDS011;13092;51.996;4.458;2023-09-12T03:40:01;57.97;;;52.05;;
25111;SDS011;13092;51.996;4.458;2023-09-12T03:42:34;61.40;;;53.55;;
25111;SDS011;13092;51.996;4.458;2023-09-12T03:45:08;60.45;;;53.30;;
25111;SDS011;13092;51.996;4.458;2023-09-12T03:47:37;59.15;;;52.70;;
25111;SDS011;13092;51.996;4.458;2023-09-12T03:50:06;66.72;;;55.05;;
25111;SDS011;13092;51.996;4.458;2023-09-12T03:52:34;59.72;;;53.28;;
25111;SDS011;13092;51.996;4.458;2023-09-12T03:55:03;71.13;;;56.88;;
25111;SDS011;13092;51.996;4.458;2023-09-12T03:57:31;61.83;;;54.45;;
25111;SDS011;13092;51.996;4.458;2023-09-12T04:00:01;64.55;;;54.40;;
25111;SDS011;13092;51.996;4.458;2023-09-12T04:02:32;60.63;;;54.00;;
25111;SDS011;13092;51.996;4.458;2023-09-12T04:05:00;62.85;;;54.38;;
25111;SDS011;13092;51.996;4.458;2023-09-12T04:07:28;67.85;;;55.58;;
25111;SDS011;13092;51.996;4.458;2023-09-12T04:09:56;71.50;;;57.83;;
25111;SDS011;13092;51.996;4.458;2023-09-12T04:12:25;67.22;;;57.55;;
25111;SDS011;13092;51.996;4.458;2023-09-12T04:14:54;67.22;;;55.20;;
25111;SDS011;13092;51.996;4.458;2023-09-12T04:17:22;64.72;;;55.88;;
25111;SDS011;13092;51.996;4.458;2023-09-12T04:19:51;69.70;;;55.85;;
25111;SDS011;13092;51.996;4.458;2023-09-12T04:22:19;69.60;;;55.80;;
25111;SDS011;13092;51.996;4.458;2023-09-12T04:24:49;66.32;;;56.35;;
25111;SDS011;13092;51.996;4.458;2023-09-12T04:27:17;72.15;;;56.22;;
25111;SDS011;13092;51.996;4.458;2023-09-12T04:29:45;69.85;;;57.92;;
25111;SDS011;13092;51.996;4.458;2023-09-12T04:32:15;80.38;;;59.13;;
25111;SDS011;13092;51.996;4.458;2023-09-12T04:34:50;72.07;;;55.35;;
25111;SDS011;13092;51.996;4.458;2023-09-12T04:37:18;70.63;;;55.75;;
25111;SDS011;13092;51.996;4.458;2023-09-12T04:39:47;73.90;;;56.33;;
25111;SDS011;13092;51.996;4.458;2023-09-12T04:42:16;72.72;;;57.20;;
25111;SDS011;13092;51.996;4.458;2023-09-12T04:44:44;71.10;;;56.85;;
25111;SDS011;13092;51.996;4.458;2023-09-12T04:47:12;71.82;;;58.40;;
25111;SDS011;13092;51.996;4.458;2023-09-12T04:49:43;66.93;;;53.92;;
25111;SDS011;13092;51.996;4.458;2023-09-12T04:52:11;69.85;;;55.42;;
25111;SDS011;13092;51.996;4.458;2023-09-12T04:54:39;66.75;;;55.35;;
25111;SDS011;13092;51.996;4.458;2023-09-12T04:57:08;68.47;;;55.08;;
25111;SDS011;13092;51.996;4.458;2023-09-12T04:59:36;68.93;;;53.92;;
25111;SDS011;13092;51.996;4.458;2023-09-12T05:02:04;71.80;;;54.70;;
25111;SDS011;13092;51.996;4.458;2023-09-12T05:04:34;68.40;;;53.85;;
25111;SDS011;13092;51.996;4.458;2023-09-12T05:07:03;70.80;;;56.05;;
25111;SDS011;13092;51.996;4.458;2023-09-12T05:09:32;68.18;;;55.78;;
25111;SDS011;13092;51.996;4.458;2023-09-12T05:12:00;66.32;;;54.10;;
25111;SDS011;13092;51.996;4.458;2023-09-12T05:14:28;70.38;;;52.97;;
25111;SDS011;13092;51.996;4.458;2023-09-12T05:16:56;69.00;;;55.65;;
25111;SDS011;13092;51.996;4.458;2023-09-12T05:19:25;67.90;;;54.90;;
25111;SDS011;13092;51.996;4.458;2023-09-12T05:21:55;70.78;;;56.00;;
25111;SDS011;13092;51.996;4.458;2023-09-12T05:24:23;73.93;;;56.63;;
25111;SDS011;13092;51.996;4.458;2023-09-12T05:26:51;71.93;;;56.28;;
25111;SDS011;13092;51.996;4.458;2023-09-12T05:29:20;71.50;;;55.80;;
25111;SDS011;13092;51.996;4.458;2023-09-12T05:31:48;68.57;;;56.17;;
25111;SDS011;13092;51.996;4.458;2023-09-12T05:34:16;73.07;;;58.35;;
25111;SDS011;13092;51.996;4.458;2023-09-12T05:36:45;75.03;;;58.92;;
25111;SDS011;13092;51.996;4.458;2023-09-12T05:39:14;79.28;;;58.60;;
25111;SDS011;13092;51.996;4.458;2023-09-12T05:41:43;90.82;;;62.05;;
25111;SDS011;13092;51.996;4.458;2023-09-12T05:44:11;77.10;;;58.53;;
25111;SDS011;13092;51.996;4.458;2023-09-12T05:46:44;76.28;;;56.13;;
25111;SDS011;13092;51.996;4.458;2023-09-12T05:49:13;85.25;;;60.05;;
25111;SDS011;13092;51.996;4.458;2023-09-12T05:51:41;92.28;;;61.10;;
25111;SDS011;13092;51.996;4.458;2023-09-12T05:54:10;77.60;;;60.13;;
25111;SDS011;13092;51.996;4.458;2023-09-12T05:56:41;76.90;;;58.60;;
25111;SDS011;13092;51.996;4.458;2023-09-12T05:59:09;81.82;;;59.80;;
25111;SDS011;13092;51.996;4.458;2023-09-12T06:01:37;68.45;;;55.95;;
25111;SDS011;13092;51.996;4.458;2023-09-12T06:04:07;75.32;;;57.88;;
25111;SDS011;13092;51.996;4.458;2023-09-12T06:06:36;73.18;;;57.72;;
25111;SDS011;13092;51.996;4.458;2023-09-12T06:09:05;79.10;;;57.35;;
25111;SDS011;13092;51.996;4.458;2023-09-12T06:11:35;81.95;;;59.15;;
25111;SDS011;13092;51.996;4.458;2023-09-12T06:14:04;74.55;;;58.15;;
25111;SDS011;13092;51.996;4.458;2023-09-12T06:16:32;79.03;;;58.03;;
25111;SDS011;13092;51.996;4.458;2023-09-12T06:19:01;75.82;;;57.83;;
25111;SDS011;13092;51.996;4.458;2023-09-12T06:21:29;85.05;;;61.13;;
25111;SDS011;13092;51.996;4.458;2023-09-12T06:24:08;79.18;;;59.20;;
25111;SDS011;13092;51.996;4.458;2023-09-12T06:26:37;85.20;;;59.40;;
25111;SDS011;13092;51.996;4.458;2023-09-12T06:29:07;82.38;;;59.92;;
25111;SDS011;13092;51.996;4.458;2023-09-12T06:31:35;87.55;;;61.55;;
25111;SDS011;13092;51.996;4.458;2023-09-12T06:34:04;79.40;;;58.17;;
25111;SDS011;13092;51.996;4.458;2023-09-12T06:36:32;84.00;;;59.80;;
25111;SDS011;13092;51.996;4.458;2023-09-12T06:39:00;77.93;;;57.88;;
25111;SDS011;13092;51.996;4.458;2023-09-12T06:41:30;75.45;;;58.22;;
25111;SDS011;13092;51.996;4.458;2023-09-12T06:43:58;72.90;;;58.03;;
25111;SDS011;13092;51.996;4.458;2023-09-12T06:46:31;91.68;;;62.15;;
25111;SDS011;13092;51.996;4.458;2023-09-12T06:49:02;75.70;;;57.38;;
25111;SDS011;13092;51.996;4.458;2023-09-12T06:51:31;79.18;;;58.42;;
25111;SDS011;13092;51.996;4.458;2023-09-12T06:54:04;69.43;;;56.65;;
25111;SDS011;13092;51.996;4.458;2023-09-12T06:56:32;70.70;;;57.05;;
25111;SDS011;13092;51.996;4.458;2023-09-12T06:59:04;73.85;;;57.53;;
25111;SDS011;13092;51.996;4.458;2023-09-12T07:01:34;72.40;;;58.85;;
25111;SDS011;13092;51.996;4.458;2023-09-12T07:04:02;72.97;;;57.03;;
25111;SDS011;13092;51.996;4.458;2023-09-12T07:06:30;75.32;;;59.58;;
25111;SDS011;13092;51.996;4.458;2023-09-12T07:08:59;71.35;;;57.88;;
25111;SDS011;13092;51.996;4.458;2023-09-12T07:11:28;71.63;;;58.35;;
25111;SDS011;13092;51.996;4.458;2023-09-12T07:13:56;72.65;;;59.00;;
25111;SDS011;13092;51.996;4.458;2023-09-12T07:16:24;74.45;;;60.60;;
25111;SDS011;13092;51.996;4.458;2023-09-12T07:18:57;72.70;;;60.70;;
25111;SDS011;13092;51.996;4.458;2023-09-12T07:21:25;66.07;;;56.70;;
25111;SDS011;13092;51.996;4.458;2023-09-12T07:23:54;71.30;;;58.10;;
25111;SDS011;13092;51.996;4.458;2023-09-12T07:26:22;71.10;;;58.70;;
25111;SDS011;13092;51.996;4.458;2023-09-12T07:28:53;64.40;;;56.15;;
25111;SDS011;13092;51.996;4.458;2023-09-12T07:31:21;69.15;;;58.05;;
25111;SDS011;13092;51.996;4.458;2023-09-12T07:33:50;62.90;;;56.28;;
25111;SDS011;13092;51.996;4.458;2023-09-12T07:36:19;67.05;;;58.42;;
25111;SDS011;13092;51.996;4.458;2023-09-12T07:38:47;68.53;;;58.92;;
25111;SDS011;13092;51.996;4.458;2023-09-12T07:41:16;63.20;;;56.47;;
25111;SDS011;13092;51.996;4.458;2023-09-12T07:43:45;65.20;;;58.05;;
25111;SDS011;13092;51.996;4.458;2023-09-12T07:46:13;64.47;;;57.28;;
25111;SDS011;13092;51.996;4.458;2023-09-12T07:48:41;65.88;;;56.92;;
25111;SDS011;13092;51.996;4.458;2023-09-12T07:51:13;63.80;;;56.88;;
25111;SDS011;13092;51.996;4.458;2023-09-12T07:53:45;63.83;;;57.00;;
25111;SDS011;13092;51.996;4.458;2023-09-12T07:56:13;64.28;;;57.30;;
25111;SDS011;13092;51.996;4.458;2023-09-12T07:58:41;63.70;;;57.00;;
25111;SDS011;13092;51.996;4.458;2023-09-12T08:01:09;65.00;;;58.20;;
25111;SDS011;13092;51.996;4.458;2023-09-12T08:03:39;65.22;;;58.53;;
25111;SDS011;13092;51.996;4.458;2023-09-12T08:06:08;65.13;;;57.90;;
25111;SDS011;13092;51.996;4.458;2023-09-12T08:08:36;63.83;;;57.47;;
25111;SDS011;13092;51.996;4.458;2023-09-12T08:11:06;63.88;;;57.25;;
25111;SDS011;13092;51.996;4.458;2023-09-12T08:13:34;65.72;;;58.78;;
25111;SDS011;13092;51.996;4.458;2023-09-12T08:16:02;69.78;;;62.47;;
25111;SDS011;13092;51.996;4.458;2023-09-12T08:18:30;65.07;;;58.80;;
25111;SDS011;13092;51.996;4.458;2023-09-12T08:20:59;69.45;;;62.30;;
25111;SDS011;13092;51.996;4.458;2023-09-12T08:23:27;68.13;;;61.33;;
25111;SDS011;13092;51.996;4.458;2023-09-12T08:25:55;68.50;;;61.78;;
25111;SDS011;13092;51.996;4.458;2023-09-12T08:28:24;68.93;;;61.67;;
25111;SDS011;13092;51.996;4.458;2023-09-12T08:30:52;67.25;;;60.13;;
25111;SDS011;13092;51.996;4.458;2023-09-12T08:33:20;69.55;;;62.50;;
25111;SDS011;13092;51.996;4.458;2023-09-12T08:35:51;69.30;;;62.28;;
25111;SDS011;13092;51.996;4.458;2023-09-12T08:38:19;70.78;;;63.67;;
25111;SDS011;13092;51.996;4.458;2023-09-12T08:40:48;71.18;;;64.20;;
25111;SDS011;13092;51.996;4.458;2023-09-12T08:43:17;66.90;;;60.53;;
25111;SDS011;13092;51.996;4.458;2023-09-12T08:45:47;68.68;;;62.03;;
25111;SDS011;13092;51.996;4.458;2023-09-12T08:48:15;69.55;;;62.85;;
25111;SDS011;13092;51.996;4.458;2023-09-12T08:50:48;67.45;;;61.05;;
25111;SDS011;13092;51.996;4.458;2023-09-12T08:53:17;66.50;;;60.13;;
25111;SDS011;13092;51.996;4.458;2023-09-12T08:55:49;64.97;;;58.92;;
25111;SDS011;13092;51.996;4.458;2023-09-12T08:58:18;65.13;;;59.17;;
25111;SDS011;13092;51.996;4.458;2023-09-12T09:00:49;65.43;;;58.85;;
25111;SDS011;13092;51.996;4.458;2023-09-12T09:03:19;64.30;;;58.30;;
25111;SDS011;13092;51.996;4.458;2023-09-12T09:05:49;69.38;;;62.78;;
25111;SDS011;13092;51.996;4.458;2023-09-12T09:08:19;66.25;;;60.13;;
25111;SDS011;13092;51.996;4.458;2023-09-12T09:10:55;65.05;;;59.25;;
25111;SDS011;13092;51.996;4.458;2023-09-12T09:13:24;68.38;;;62.10;;
25111;SDS011;13092;51.996;4.458;2023-09-12T09:18:50;68.85;;;62.30;;
25111;SDS011;13092;51.996;4.458;2023-09-12T09:21:19;69.47;;;63.17;;
25111;SDS011;13092;51.996;4.458;2023-09-12T09:23:50;65.70;;;59.67;;
25111;SDS011;13092;51.996;4.458;2023-09-12T09:26:19;65.47;;;59.67;;
25111;SDS011;13092;51.996;4.458;2023-09-12T09:29:01;66.20;;;60.25;;
25111;SDS011;13092;51.996;4.458;2023-09-12T09:31:31;67.93;;;61.72;;
25111;SDS011;13092;51.996;4.458;2023-09-12T09:34:00;67.40;;;61.38;;
25111;SDS011;13092;51.996;4.458;2023-09-12T09:36:31;65.10;;;59.42;;
25111;SDS011;13092;51.996;4.458;2023-09-12T09:38:59;69.15;;;62.88;;
25111;SDS011;13092;51.996;4.458;2023-09-12T09:41:31;68.07;;;62.00;;
25111;SDS011;13092;51.996;4.458;2023-09-12T09:44:00;67.10;;;61.30;;
25111;SDS011;13092;51.996;4.458;2023-09-12T09:46:32;68.28;;;62.25;;
25111;SDS011;13092;51.996;4.458;2023-09-12T09:49:00;73.93;;;67.22;;
25111;SDS011;13092;51.996;4.458;2023-09-12T09:51:29;78.65;;;71.57;;
25111;SDS011;13092;51.996;4.458;2023-09-12T09:53:59;77.05;;;68.95;;
25111;SDS011;13092;51.996;4.458;2023-09-12T09:56:27;72.20;;;65.75;;
25111;SDS011;13092;51.996;4.458;2023-09-12T09:58:56;76.10;;;69.13;;
25111;SDS011;13092;51.996;4.458;2023-09-12T10:01:26;76.85;;;70.00;;
25111;SDS011;13092;51.996;4.458;2023-09-12T10:03:57;76.90;;;69.28;;
25111;SDS011;13092;51.996;4.458;2023-09-12T10:06:29;73.63;;;66.93;;
25111;SDS011;13092;51.996;4.458;2023-09-12T10:08:59;73.75;;;67.03;;
25111;SDS011;13092;51.996;4.458;2023-09-12T10:11:32;79.47;;;72.15;;
25111;SDS011;13092;51.996;4.458;2023-09-12T10:14:02;77.60;;;70.63;;
25111;SDS011;13092;51.996;4.458;2023-09-12T10:16:32;79.82;;;72.13;;
25111;SDS011;13092;51.996;4.458;2023-09-12T10:19:09;81.55;;;74.18;;
25111;SDS011;13092;51.996;4.458;2023-09-12T10:21:41;82.97;;;75.25;;
25111;SDS011;13092;51.996;4.458;2023-09-12T10:24:15;82.20;;;75.03;;
25111;SDS011;13092;51.996;4.458;2023-09-12T10:26:44;82.22;;;74.78;;
25111;SDS011;13092;51.996;4.458;2023-09-12T10:29:13;81.93;;;74.35;;
25111;SDS011;13092;51.996;4.458;2023-09-12T10:31:42;80.47;;;73.38;;
25111;SDS011;13092;51.996;4.458;2023-09-12T10:34:12;86.35;;;78.82;;
25111;SDS011;13092;51.996;4.458;2023-09-12T10:36:44;84.88;;;77.45;;
25111;SDS011;13092;51.996;4.458;2023-09-12T10:39:14;85.93;;;78.35;;
25111;SDS011;13092;51.996;4.458;2023-09-12T10:41:42;86.05;;;78.82;;
25111;SDS011;13092;51.996;4.458;2023-09-12T10:44:11;85.22;;;77.93;;
25111;SDS011;13092;51.996;4.458;2023-09-12T10:46:44;85.32;;;77.88;;
25111;SDS011;13092;51.996;4.458;2023-09-12T10:49:15;84.90;;;77.72;;
25111;SDS011;13092;51.996;4.458;2023-09-12T10:51:46;83.53;;;76.43;;
25111;SDS011;13092;51.996;4.458;2023-09-12T10:54:23;88.78;;;80.88;;
25111;SDS011;13092;51.996;4.458;2023-09-12T10:57:17;90.63;;;82.28;;
25111;SDS011;13092;51.996;4.458;2023-09-12T11:26:25;74.75;;;67.50;;
25111;SDS011;13092;51.996;4.458;2023-09-12T11:28:53;73.60;;;66.72;;
25111;SDS011;13092;51.996;4.458;2023-09-12T11:31:25;73.25;;;66.35;;
25111;SDS011;13092;51.996;4.458;2023-09-12T11:33:53;73.55;;;66.32;;
25111;SDS011;13092;51.996;4.458;2023-09-12T11:36:22;72.45;;;65.53;;
25111;SDS011;13092;51.996;4.458;2023-09-12T11:38:51;72.82;;;65.43;;
25111;SDS011;13092;51.996;4.458;2023-09-12T11:44:10;72.13;;;65.22;;
25111;SDS011;13092;51.996;4.458;2023-09-12T11:46:40;68.03;;;61.85;;
25111;SDS011;13092;51.996;4.458;2023-09-12T11:49:09;69.20;;;62.53;;
25111;SDS011;13092;51.996;4.458;2023-09-12T11:51:43;67.95;;;61.60;;
25111;SDS011;13092;51.996;4.458;2023-09-12T11:54:15;69.65;;;62.92;;
25111;SDS011;13092;51.996;4.458;2023-09-12T11:56:44;69.07;;;62.72;;
25111;SDS011;13092;51.996;4.458;2023-09-12T11:59:15;66.55;;;60.17;;
25111;SDS011;13092;51.996;4.458;2023-09-12T12:01:45;66.68;;;60.15;;
25111;SDS011;13092;51.996;4.458;2023-09-12T12:04:14;68.57;;;62.15;;
25111;SDS011;13092;51.996;4.458;2023-09-12T12:06:45;63.83;;;57.78;;
25111;SDS011;13092;51.996;4.458;2023-09-12T12:09:14;66.45;;;60.30;;
25111;SDS011;13092;51.996;4.458;2023-09-12T12:11:46;65.75;;;59.25;;
25111;SDS011;13092;51.996;4.458;2023-09-12T12:25:38;64.30;;;58.40;;
25111;SDS011;13092;51.996;4.458;2023-09-12T12:28:08;64.22;;;58.47;;
25111;SDS011;13092;51.996;4.458;2023-09-12T12:30:36;69.35;;;63.33;;
25111;SDS011;13092;51.996;4.458;2023-09-12T12:33:06;66.63;;;61.22;;
25111;SDS011;13092;51.996;4.458;2023-09-12T12:35:59;65.65;;;60.15;;
25111;SDS011;13092;51.996;4.458;2023-09-12T12:38:31;63.70;;;58.40;;
25111;SDS011;13092;51.996;4.458;2023-09-12T12:41:03;65.80;;;60.28;;
25111;SDS011;13092;51.996;4.458;2023-09-12T12:43:33;69.50;;;63.38;;
25111;SDS011;13092;51.996;4.458;2023-09-12T12:46:09;68.72;;;62.50;;
25111;SDS011;13092;51.996;4.458;2023-09-12T12:48:43;68.43;;;62.53;;
25111;SDS011;13092;51.996;4.458;2023-09-12T12:51:14;73.10;;;66.82;;
25111;SDS011;13092;51.996;4.458;2023-09-12T12:54:06;81.65;;;74.22;;
25111;SDS011;13092;51.996;4.458;2023-09-12T12:56:38;83.47;;;76.07;;
25111;SDS011;13092;51.996;4.458;2023-09-12T12:59:10;85.38;;;77.93;;
25111;SDS011;13092;51.996;4.458;2023-09-12T13:01:38;83.82;;;76.28;;
25111;SDS011;13092;51.996;4.458;2023-09-12T13:04:09;81.57;;;74.07;;
25111;SDS011;13092;51.996;4.458;2023-09-12T13:06:54;80.30;;;73.07;;
25111;SDS011;13092;51.996;4.458;2023-09-12T13:09:22;83.60;;;75.82;;
25111;SDS011;13092;51.996;4.458;2023-09-12T13:11:51;83.78;;;76.18;;
25111;SDS011;13092;51.996;4.458;2023-09-12T13:14:23;85.15;;;77.57;;
25111;SDS011;13092;51.996;4.458;2023-09-12T13:16:57;80.15;;;72.80;;
25111;SDS011;13092;51.996;4.458;2023-09-12T13:19:39;80.72;;;73.32;;
25111;SDS011;13092;51.996;4.458;2023-09-12T13:22:56;79.80;;;72.53;;
25111;SDS011;13092;51.996;4.458;2023-09-12T13:25:58;79.45;;;72.10;;
25111;SDS011;13092;51.996;4.458;2023-09-12T13:28:45;80.38;;;72.90;;
25111;SDS011;13092;51.996;4.458;2023-09-12T13:45:58;75.38;;;68.55;;
25111;SDS011;13092;51.996;4.458;2023-09-12T13:48:27;73.18;;;66.68;;
25111;SDS011;13092;51.996;4.458;2023-09-12T13:50:56;70.10;;;64.13;;
25111;SDS011;13092;51.996;4.458;2023-09-12T13:53:24;70.00;;;63.92;;
25111;SDS011;13092;51.996;4.458;2023-09-12T13:55:52;68.43;;;62.53;;
25111;SDS011;13092;51.996;4.458;2023-09-12T13:58:43;63.97;;;58.22;;
25111;SDS011;13092;51.996;4.458;2023-09-12T14:01:17;59.45;;;53.83;;
25111;SDS011;13092;51.996;4.458;2023-09-12T14:03:58;65.60;;;58.42;;
25111;SDS011;13092;51.996;4.458;2023-09-12T14:06:28;60.72;;;54.72;;
25111;SDS011;13092;51.996;4.458;2023-09-12T14:08:57;57.65;;;51.95;;
25111;SDS011;13092;51.996;4.458;2023-09-12T14:11:25;58.35;;;52.85;;
25111;SDS011;13092;51.996;4.458;2023-09-12T14:14:01;56.58;;;51.30;;
25111;SDS011;13092;51.996;4.458;2023-09-12T14:16:35;56.25;;;50.75;;
25111;SDS011;13092;51.996;4.458;2023-09-12T14:19:04;53.70;;;48.47;;
25111;SDS011;13092;51.996;4.458;2023-09-12T14:21:36;56.13;;;50.30;;
25111;SDS011;13092;51.996;4.458;2023-09-12T14:24:07;56.33;;;50.92;;
25111;SDS011;13092;51.996;4.458;2023-09-12T14:26:36;56.47;;;50.97;;
25111;SDS011;13092;51.996;4.458;2023-09-12T14:29:04;55.08;;;49.78;;
25111;SDS011;13092;51.996;4.458;2023-09-12T14:31:35;54.60;;;49.30;;
25111;SDS011;13092;51.996;4.458;2023-09-12T14:34:04;53.58;;;48.63;;
25111;SDS011;13092;51.996;4.458;2023-09-12T14:40:35;52.47;;;47.42;;
25111;SDS011;13092;51.996;4.458;2023-09-12T14:43:04;51.13;;;46.33;;
25111;SDS011;13092;51.996;4.458;2023-09-12T14:45:33;52.08;;;47.25;;
25111;SDS011;13092;51.996;4.458;2023-09-12T14:48:24;53.03;;;47.92;;
25111;SDS011;13092;51.996;4.458;2023-09-12T14:50:58;52.17;;;47.28;;
25111;SDS011;13092;51.996;4.458;2023-09-12T14:53:46;52.75;;;47.75;;
25111;SDS011;13092;51.996;4.458;2023-09-12T14:56:29;53.60;;;48.50;;
25111;SDS011;13092;51.996;4.458;2023-09-12T14:59:19;53.55;;;48.47;;
25111;SDS011;13092;51.996;4.458;2023-09-12T15:01:56;52.35;;;47.17;;
25111;SDS011;13092;51.996;4.458;2023-09-12T15:10:58;52.55;;;47.20;;
25111;SDS011;13092;51.996;4.458;2023-09-12T15:16:16;51.50;;;46.35;;
25111;SDS011;13092;51.996;4.458;2023-09-12T15:18:58;51.42;;;46.25;;
25111;SDS011;13092;51.996;4.458;2023-09-12T15:21:27;53.15;;;47.95;;
25111;SDS011;13092;51.996;4.458;2023-09-12T15:23:55;53.55;;;48.28;;
25111;SDS011;13092;51.996;4.458;2023-09-12T15:26:25;54.28;;;48.90;;
25111;SDS011;13092;51.996;4.458;2023-09-12T15:28:53;55.08;;;49.55;;
25111;SDS011;13092;51.996;4.458;2023-09-12T15:31:21;58.08;;;52.78;;
25111;SDS011;13092;51.996;4.458;2023-09-12T15:33:50;56.30;;;50.50;;
25111;SDS011;13092;51.996;4.458;2023-09-12T15:36:18;56.90;;;51.58;;
25111;SDS011;13092;51.996;4.458;2023-09-12T15:38:46;56.25;;;50.60;;
25111;SDS011;13092;51.996;4.458;2023-09-12T15:41:15;56.35;;;50.95;;
25111;SDS011;13092;51.996;4.458;2023-09-12T15:43:45;54.97;;;50.00;;
25111;SDS011;13092;51.996;4.458;2023-09-12T15:46:14;53.78;;;48.88;;
25111;SDS011;13092;51.996;4.458;2023-09-12T15:49:01;55.67;;;50.30;;
25111;SDS011;13092;51.996;4.458;2023-09-12T15:51:30;54.22;;;49.40;;
25111;SDS011;13092;51.996;4.458;2023-09-12T15:53:59;55.22;;;50.33;;